Pagrindinis puslapis
METAR-TAF:

METAR-TAF

Oro uostai :

Santa Ana del Yacuma, Bolivija

platuma: 13-46S, ilguma: 065-26W, Aukštis: 144 m

Dabartinis oras

Ataskaita buvo paskelbta 1 valandą ir 10 minutes, ne 13:00 UTC
Ramus vėjas
Temperatūra 25°C
Drėgmė 94%
Slėgis 1012 hPa
Matomumas: 7000 m
Išsisklaidę debesys ne aukštis 500 ft
Su prošvaistėmis ne aukštis 1500 ft
Mažai debesys ne aukštis 2300 ft, Liūtiniai kamuoliniai debesys.
Apsiniaukę ne aukštis 7000 ft
Liūtis kaimynystėje

METAR: SLSA 211300Z 00000KT 7000 VCSH SCT005 BKN015 FEW023CB OVC070 25/24 Q1012

Laikas: 10:10 (14:10 UTC)


TAF: trūkstamas

Orai ataskaitas ir orų prognozės (METAR, TAF).

turimą stotys yra geltonos ir raudonos taškus žemėlapyje.

Perkelti pele per norėdami pamatyti stoties vardą.

Tada spustelėkite, norėdami matyti oro stebėjimo ir prognozės.

Norėdami pakeisti žemėlapį: spustelėkite ant žalios mygtukų su juodo kryžiaus žemyn,; žalią mygtuką su brūkšneliu, jei norite nutolinti; arba žalių rodyklių gretimoms žemėlapius.


METAR-TAF: